createdAt,value
2018-12-13T00:00:15.961Z,1018.17
2018-12-13T00:01:15.958Z,1018.15
2018-12-13T00:02:16.067Z,1018.16
2018-12-13T00:03:15.987Z,1018.12
2018-12-13T00:04:15.974Z,1018.16
2018-12-13T00:05:15.974Z,1018.10
2018-12-13T00:06:15.981Z,1018.12
2018-12-13T00:07:15.970Z,1018.11
2018-12-13T00:08:15.987Z,1018.07
2018-12-13T00:10:15.980Z,1018.08
2018-12-13T00:11:15.985Z,1018.07
2018-12-13T00:12:16.024Z,1018.07
2018-12-13T00:13:15.990Z,1018.05
2018-12-13T00:14:16.048Z,1018.03
2018-12-13T00:15:16.121Z,1018.04
2018-12-13T00:16:15.987Z,1017.99
2018-12-13T00:17:15.996Z,1018.07
2018-12-13T00:19:16.003Z,1018.02
2018-12-13T00:21:16.007Z,1018.07
2018-12-13T00:22:16.014Z,1018.05
2018-12-13T00:23:16.000Z,1018.06
2018-12-13T00:24:16.010Z,1018.06
2018-12-13T00:25:16.007Z,1018.04
2018-12-13T00:26:16.027Z,1018.09
2018-12-13T00:27:16.018Z,1018.11
2018-12-13T00:28:16.022Z,1018.09
2018-12-13T00:29:16.024Z,1018.05
2018-12-13T00:30:16.024Z,1018.07
2018-12-13T00:31:16.021Z,1018.08
2018-12-13T00:32:16.034Z,1018.09
2018-12-13T00:33:16.088Z,1018.09
2018-12-13T00:34:16.026Z,1018.07
2018-12-13T00:35:16.039Z,1018.08
2018-12-13T00:36:16.033Z,1018.07
2018-12-13T00:37:16.035Z,1018.05
2018-12-13T00:38:16.080Z,1018.03
2018-12-13T00:39:16.034Z,1018.06
2018-12-13T00:40:16.033Z,1017.99
2018-12-13T00:41:16.041Z,1018.04
2018-12-13T00:42:16.049Z,1018.01
2018-12-13T00:43:16.107Z,1018.07
2018-12-13T00:44:16.065Z,1018.00
2018-12-13T00:45:16.059Z,1018.01
2018-12-13T00:46:16.055Z,1017.99
2018-12-13T00:47:16.065Z,1017.99
2018-12-13T00:48:16.065Z,1018.04
2018-12-13T00:49:16.056Z,1017.94
2018-12-13T00:51:16.065Z,1017.94
2018-12-13T00:52:16.068Z,1017.97
2018-12-13T00:53:16.074Z,1017.94
2018-12-13T00:54:16.094Z,1017.97
2018-12-13T00:55:16.075Z,1017.94
2018-12-13T00:56:16.070Z,1017.95
2018-12-13T00:57:16.079Z,1017.93
2018-12-13T00:58:16.079Z,1017.92
2018-12-13T00:59:16.085Z,1017.94
2018-12-13T01:00:16.092Z,1017.93
2018-12-13T01:01:16.083Z,1017.92
2018-12-13T01:02:16.080Z,1017.92
2018-12-13T01:03:16.088Z,1017.87
2018-12-13T01:04:16.085Z,1017.88
2018-12-13T01:05:16.100Z,1017.92
2018-12-13T01:06:16.210Z,1017.91
2018-12-13T01:07:16.095Z,1017.91
2018-12-13T01:08:16.099Z,1017.86
2018-12-13T01:09:16.099Z,1017.85
2018-12-13T01:10:16.099Z,1017.83
2018-12-13T01:11:16.107Z,1017.78
2018-12-13T01:12:16.107Z,1017.81
2018-12-13T01:13:16.104Z,1017.80
2018-12-13T01:14:16.114Z,1017.85
2018-12-13T01:15:16.114Z,1017.85
2018-12-13T01:16:16.123Z,1017.81
2018-12-13T01:17:16.133Z,1017.81
2018-12-13T01:18:16.122Z,1017.78
2018-12-13T01:19:16.122Z,1017.85
2018-12-13T01:20:16.127Z,1017.81
2018-12-13T01:21:20.573Z,1017.83
2018-12-13T01:22:16.121Z,1017.78
2018-12-13T01:23:16.128Z,1017.78
2018-12-13T01:24:16.131Z,1017.77
2018-12-13T01:25:16.451Z,1017.74
2018-12-13T01:26:16.142Z,1017.74
2018-12-13T01:27:16.192Z,1017.72
2018-12-13T01:28:16.142Z,1017.70
2018-12-13T01:29:16.140Z,1017.69
2018-12-13T01:30:16.155Z,1017.65
2018-12-13T01:31:16.175Z,1017.72
2018-12-13T01:32:16.145Z,1017.73
2018-12-13T01:33:16.158Z,1017.72
2018-12-13T01:34:16.150Z,1017.67
2018-12-13T01:35:16.171Z,1017.67
2018-12-13T01:36:16.208Z,1017.66
2018-12-13T01:37:16.220Z,1017.69
2018-12-13T01:38:16.163Z,1017.66
2018-12-13T01:39:16.160Z,1017.67
2018-12-13T01:40:16.169Z,1017.63
2018-12-13T01:41:16.169Z,1017.69
2018-12-13T01:42:16.166Z,1017.65
2018-12-13T01:43:16.200Z,1017.66
2018-12-13T01:44:16.171Z,1017.67
2018-12-13T01:45:16.178Z,1017.66
2018-12-13T01:46:16.174Z,1017.65
2018-12-13T01:47:16.180Z,1017.67
2018-12-13T01:48:16.187Z,1017.67
2018-12-13T01:49:16.174Z,1017.66
2018-12-13T01:50:16.182Z,1017.68
2018-12-13T01:51:16.182Z,1017.65
2018-12-13T01:52:16.192Z,1017.65
2018-12-13T01:53:16.181Z,1017.62
2018-12-13T01:54:16.189Z,1017.65
2018-12-13T01:55:16.197Z,1017.62
2018-12-13T01:56:16.194Z,1017.61
2018-12-13T01:57:16.204Z,1017.60
2018-12-13T01:58:16.206Z,1017.57
2018-12-13T01:59:16.195Z,1017.58
2018-12-13T02:00:16.213Z,1017.59
2018-12-13T02:01:16.211Z,1017.52
2018-12-13T02:02:16.202Z,1017.57
2018-12-13T02:03:16.201Z,1017.58
2018-12-13T02:04:16.197Z,1017.59
2018-12-13T02:05:16.214Z,1017.59
2018-12-13T02:06:16.211Z,1017.58
2018-12-13T02:07:16.210Z,1017.60
2018-12-13T02:08:16.218Z,1017.59
2018-12-13T02:09:16.214Z,1017.60
2018-12-13T02:10:16.217Z,1017.60
2018-12-13T02:11:16.205Z,1017.57
2018-12-13T02:12:16.221Z,1017.55
2018-12-13T02:13:16.219Z,1017.53
2018-12-13T02:14:16.221Z,1017.53
2018-12-13T02:15:16.220Z,1017.52
2018-12-13T02:16:16.240Z,1017.50
2018-12-13T02:17:16.217Z,1017.54
2018-12-13T02:18:16.228Z,1017.53
2018-12-13T02:19:16.267Z,1017.54
2018-12-13T02:20:16.242Z,1017.49
2018-12-13T02:21:16.238Z,1017.53
2018-12-13T02:22:16.229Z,1017.51
2018-12-13T02:23:16.281Z,1017.50
2018-12-13T02:24:16.236Z,1017.47
2018-12-13T02:25:16.247Z,1017.46
2018-12-13T02:26:16.236Z,1017.44
2018-12-13T02:27:16.238Z,1017.40
2018-12-13T02:28:16.286Z,1017.46
2018-12-13T02:29:16.238Z,1017.43
2018-12-13T02:30:16.243Z,1017.39
2018-12-13T02:31:16.244Z,1017.41
2018-12-13T02:32:16.242Z,1017.35
2018-12-13T02:33:16.244Z,1017.38
2018-12-13T02:34:16.251Z,1017.36
2018-12-13T02:35:16.253Z,1017.38
2018-12-13T02:36:16.254Z,1017.41
2018-12-13T02:37:16.250Z,1017.40
2018-12-13T02:38:16.247Z,1017.39
2018-12-13T02:39:16.250Z,1017.39
2018-12-13T02:40:16.245Z,1017.38
2018-12-13T02:41:16.253Z,1017.37
2018-12-13T02:42:16.259Z,1017.38
2018-12-13T02:43:16.269Z,1017.36
2018-12-13T02:44:16.265Z,1017.34
2018-12-13T02:45:16.253Z,1017.35
2018-12-13T02:46:16.255Z,1017.32
2018-12-13T02:47:16.264Z,1017.33
2018-12-13T02:48:16.273Z,1017.28
2018-12-13T02:49:16.276Z,1017.29
2018-12-13T02:50:16.267Z,1017.27
2018-12-13T02:51:16.270Z,1017.28
2018-12-13T02:52:16.274Z,1017.27
2018-12-13T02:53:16.289Z,1017.25
2018-12-13T02:54:16.266Z,1017.26
2018-12-13T02:55:16.278Z,1017.28
2018-12-13T02:56:16.270Z,1017.26
2018-12-13T02:57:16.273Z,1017.27
2018-12-13T02:58:16.269Z,1017.24
2018-12-13T02:59:16.270Z,1017.23
2018-12-13T03:00:16.282Z,1017.27
2018-12-13T03:01:16.283Z,1017.25
2018-12-13T03:02:16.280Z,1017.24
2018-12-13T03:03:16.274Z,1017.21
2018-12-13T03:04:16.276Z,1017.23
2018-12-13T03:05:16.284Z,1017.22
2018-12-13T03:06:16.302Z,1017.22
2018-12-13T03:07:16.296Z,1017.22
2018-12-13T03:08:16.294Z,1017.19
2018-12-13T03:09:16.301Z,1017.20
2018-12-13T03:10:16.291Z,1017.15
2018-12-13T03:11:16.282Z,1017.18
2018-12-13T03:12:16.341Z,1017.21
2018-12-13T03:13:16.284Z,1017.14
2018-12-13T03:14:16.308Z,1017.17
2018-12-13T03:15:16.299Z,1017.16
2018-12-13T03:16:16.297Z,1017.15
2018-12-13T03:17:16.303Z,1017.18
2018-12-13T03:18:16.288Z,1017.20
2018-12-13T03:19:16.299Z,1017.20
2018-12-13T03:20:16.294Z,1017.22
2018-12-13T03:21:16.301Z,1017.25
2018-12-13T03:22:16.294Z,1017.25
2018-12-13T03:23:16.305Z,1017.25
2018-12-13T03:24:16.301Z,1017.23
2018-12-13T03:26:16.297Z,1017.22
2018-12-13T03:27:16.313Z,1017.16
2018-12-13T03:28:16.302Z,1017.18
2018-12-13T03:29:16.301Z,1017.15
2018-12-13T03:30:16.314Z,1017.16
2018-12-13T03:31:16.308Z,1017.20
2018-12-13T03:32:16.423Z,1017.18
2018-12-13T03:33:16.325Z,1017.17
2018-12-13T03:34:16.325Z,1017.12
2018-12-13T03:35:16.305Z,1017.12
2018-12-13T03:36:16.313Z,1017.14
2018-12-13T03:37:20.567Z,1017.12
2018-12-13T03:38:16.320Z,1017.12
2018-12-13T03:39:16.314Z,1017.07
2018-12-13T03:40:16.336Z,1017.05
2018-12-13T03:41:16.332Z,1017.03
2018-12-13T03:42:16.445Z,1017.05
2018-12-13T03:43:16.322Z,1017.05
2018-12-13T03:44:16.317Z,1016.99
2018-12-13T03:45:16.352Z,1017.01
2018-12-13T03:46:16.322Z,1017.01
2018-12-13T03:47:16.322Z,1016.98
2018-12-13T03:48:16.319Z,1016.96
2018-12-13T03:49:16.319Z,1017.01
2018-12-13T03:50:16.326Z,1017.01
2018-12-13T03:51:16.328Z,1017.02
2018-12-13T03:52:16.337Z,1016.95
2018-12-13T03:53:16.330Z,1016.99
2018-12-13T03:54:16.330Z,1016.97
2018-12-13T03:55:16.441Z,1016.95
2018-12-13T03:56:16.340Z,1016.99
2018-12-13T03:57:16.340Z,1016.97
2018-12-13T03:58:16.341Z,1017.00
2018-12-13T03:59:16.334Z,1017.00
2018-12-13T04:00:16.334Z,1016.96
2018-12-13T04:01:16.341Z,1016.91
2018-12-13T04:02:16.334Z,1016.87
2018-12-13T04:03:16.341Z,1016.90
2018-12-13T04:04:16.337Z,1016.90
2018-12-13T04:05:16.343Z,1016.89
2018-12-13T04:06:16.344Z,1016.87
2018-12-13T04:07:16.346Z,1016.87
2018-12-13T04:08:16.372Z,1016.86
2018-12-13T04:09:16.343Z,1016.92
2018-12-13T04:10:16.364Z,1016.88
2018-12-13T04:11:16.370Z,1016.89
2018-12-13T04:12:16.345Z,1016.88
2018-12-13T04:13:16.351Z,1016.89
2018-12-13T04:14:16.346Z,1016.90
2018-12-13T04:15:16.342Z,1016.89
2018-12-13T04:16:16.350Z,1016.89
2018-12-13T04:17:16.350Z,1016.85
2018-12-13T04:18:16.492Z,1016.83
2018-12-13T04:19:16.346Z,1016.86
2018-12-13T04:20:16.351Z,1016.89
2018-12-13T04:21:16.360Z,1016.88
2018-12-13T04:22:16.361Z,1016.84
2018-12-13T04:23:16.352Z,1016.86
2018-12-13T04:24:16.357Z,1016.88
2018-12-13T04:25:16.354Z,1016.85
2018-12-13T04:26:16.357Z,1016.82
2018-12-13T04:27:16.354Z,1016.85
2018-12-13T04:28:16.364Z,1016.85
2018-12-13T04:29:16.368Z,1016.86
2018-12-13T04:30:16.357Z,1016.84
2018-12-13T04:31:16.363Z,1016.79
2018-12-13T04:32:16.364Z,1016.77
2018-12-13T04:33:16.355Z,1016.79
2018-12-13T04:34:16.353Z,1016.81
2018-12-13T04:35:16.355Z,1016.75
2018-12-13T04:36:16.411Z,1016.77
2018-12-13T04:37:16.365Z,1016.75
2018-12-13T04:38:16.359Z,1016.76
2018-12-13T04:39:16.362Z,1016.74
2018-12-13T04:40:16.365Z,1016.75
2018-12-13T04:41:16.374Z,1016.76
2018-12-13T04:42:16.363Z,1016.79
2018-12-13T04:43:16.359Z,1016.76
2018-12-13T04:44:16.378Z,1016.76
2018-12-13T04:45:16.378Z,1016.79
2018-12-13T04:46:16.362Z,1016.75
2018-12-13T04:47:16.363Z,1016.73
2018-12-13T04:48:16.372Z,1016.75
2018-12-13T04:49:16.375Z,1016.76
2018-12-13T04:50:16.364Z,1016.75
2018-12-13T04:51:16.372Z,1016.73
2018-12-13T04:52:16.368Z,1016.69
2018-12-13T04:53:16.373Z,1016.72
2018-12-13T04:54:16.365Z,1016.68
2018-12-13T04:55:16.381Z,1016.67
2018-12-13T04:56:16.376Z,1016.65
2018-12-13T04:57:16.383Z,1016.66
2018-12-13T04:58:16.388Z,1016.65
2018-12-13T04:59:16.382Z,1016.65
2018-12-13T05:00:16.399Z,1016.66
2018-12-13T05:01:16.376Z,1016.67
2018-12-13T05:02:16.369Z,1016.66
2018-12-13T05:03:16.373Z,1016.66
2018-12-13T05:04:16.397Z,1016.64
2018-12-13T05:05:16.382Z,1016.67
2018-12-13T05:06:16.381Z,1016.64
2018-12-13T05:07:16.383Z,1016.67
2018-12-13T05:08:16.373Z,1016.66
2018-12-13T05:09:16.377Z,1016.65
2018-12-13T05:10:16.392Z,1016.64
2018-12-13T05:11:16.387Z,1016.64
2018-12-13T05:12:16.388Z,1016.60
2018-12-13T05:13:16.395Z,1016.59
2018-12-13T05:14:16.398Z,1016.63
2018-12-13T05:15:16.373Z,1016.59
2018-12-13T05:16:16.388Z,1016.56
2018-12-13T05:17:16.387Z,1016.56
2018-12-13T05:18:16.377Z,1016.54
2018-12-13T05:19:16.382Z,1016.52
2018-12-13T05:20:16.392Z,1016.49
2018-12-13T05:21:16.399Z,1016.50
2018-12-13T05:22:16.377Z,1016.50
2018-12-13T05:23:16.381Z,1016.49
2018-12-13T05:24:16.387Z,1016.48
2018-12-13T05:25:17.118Z,1016.48
2018-12-13T05:26:16.401Z,1016.49
2018-12-13T05:27:16.396Z,1016.50
2018-12-13T05:28:16.397Z,1016.51
2018-12-13T05:29:16.408Z,1016.51
2018-12-13T05:30:16.390Z,1016.50
2018-12-13T05:31:16.395Z,1016.50
2018-12-13T05:32:16.389Z,1016.41
2018-12-13T05:33:16.420Z,1016.49
2018-12-13T05:34:16.400Z,1016.48
2018-12-13T05:35:16.399Z,1016.42
2018-12-13T05:36:16.389Z,1016.46
2018-12-13T05:37:16.400Z,1016.40
2018-12-13T05:38:16.389Z,1016.41
2018-12-13T05:39:16.386Z,1016.38
2018-12-13T05:40:16.397Z,1016.41
2018-12-13T05:41:16.421Z,1016.38
2018-12-13T05:43:16.410Z,1016.40
2018-12-13T05:44:16.415Z,1016.39
2018-12-13T05:45:16.401Z,1016.36
2018-12-13T05:46:16.401Z,1016.40
2018-12-13T05:47:16.474Z,1016.39
2018-12-13T05:48:16.624Z,1016.38
2018-12-13T05:51:16.401Z,1016.36
2018-12-13T05:52:16.397Z,1016.36
2018-12-13T05:53:16.399Z,1016.35
2018-12-13T05:54:16.390Z,1016.39
2018-12-13T05:57:16.403Z,1016.37
2018-12-13T05:58:16.406Z,1016.39
2018-12-13T05:59:16.404Z,1016.37
2018-12-13T06:00:16.401Z,1016.35
2018-12-13T06:01:16.406Z,1016.37
2018-12-13T06:02:16.407Z,1016.35
2018-12-13T06:03:16.408Z,1016.35
2018-12-13T06:04:16.409Z,1016.41
2018-12-13T06:05:16.412Z,1016.39
2018-12-13T06:07:16.402Z,1016.41
2018-12-13T06:08:16.401Z,1016.41
2018-12-13T06:09:16.407Z,1016.46
2018-12-13T06:10:16.402Z,1016.43
2018-12-13T06:11:16.473Z,1016.47
2018-12-13T06:13:16.417Z,1016.46
2018-12-13T06:14:16.417Z,1016.46
2018-12-13T06:15:16.423Z,1016.48
2018-12-13T06:17:16.438Z,1016.44
2018-12-13T06:18:16.418Z,1016.49
2018-12-13T06:19:16.683Z,1016.51
2018-12-13T06:21:16.503Z,1016.49
2018-12-13T06:22:16.413Z,1016.52
2018-12-13T06:24:16.407Z,1016.53
2018-12-13T06:26:16.513Z,1016.54
2018-12-13T06:27:16.663Z,1016.56
2018-12-13T06:28:16.426Z,1016.53
2018-12-13T06:29:16.422Z,1016.59
2018-12-13T06:30:16.415Z,1016.60
2018-12-13T06:31:16.773Z,1016.62
2018-12-13T06:32:16.415Z,1016.60
2018-12-13T06:33:16.618Z,1016.60
2018-12-13T06:34:16.417Z,1016.64
2018-12-13T06:35:16.465Z,1016.64
2018-12-13T06:36:16.424Z,1016.66
2018-12-13T06:37:16.725Z,1016.65
2018-12-13T06:38:16.432Z,1016.61
2018-12-13T06:39:16.640Z,1016.70
2018-12-13T06:40:16.412Z,1016.68
2018-12-13T06:41:16.748Z,1016.67
2018-12-13T06:42:16.406Z,1016.71
2018-12-13T06:43:16.870Z,1016.74
2018-12-13T06:44:16.420Z,1016.72
2018-12-13T06:45:16.776Z,1016.75
2018-12-13T06:46:16.434Z,1016.69
2018-12-13T06:47:16.862Z,1016.73
2018-12-13T06:48:16.423Z,1016.75
2018-12-13T06:49:16.459Z,1016.77
2018-12-13T06:50:16.418Z,1016.73
2018-12-13T06:51:16.844Z,1016.77
2018-12-13T06:52:16.432Z,1016.76
2018-12-13T06:53:16.627Z,1016.76
2018-12-13T06:54:16.422Z,1016.73
2018-12-13T06:55:16.430Z,1016.73
2018-12-13T06:56:16.435Z,1016.70
2018-12-13T06:57:16.425Z,1016.74
2018-12-13T06:58:16.422Z,1016.71
2018-12-13T06:59:16.425Z,1016.71
2018-12-13T07:00:16.432Z,1016.73
2018-12-13T07:01:16.435Z,1016.70
2018-12-13T07:02:16.426Z,1016.68
2018-12-13T07:03:16.419Z,1016.74
2018-12-13T07:04:16.428Z,1016.69
2018-12-13T07:05:16.425Z,1016.70
2018-12-13T07:06:16.422Z,1016.72
2018-12-13T07:07:16.435Z,1016.75
2018-12-13T07:08:16.416Z,1016.73
2018-12-13T07:09:16.440Z,1016.69
2018-12-13T07:10:16.426Z,1016.73
2018-12-13T07:11:16.421Z,1016.70
2018-12-13T07:12:16.428Z,1016.73
2018-12-13T07:13:16.423Z,1016.74
2018-12-13T07:14:16.433Z,1016.71
2018-12-13T07:15:16.436Z,1016.73
2018-12-13T07:16:16.444Z,1016.74
2018-12-13T07:17:16.428Z,1016.75
2018-12-13T07:18:16.425Z,1016.77
2018-12-13T07:19:16.432Z,1016.73
2018-12-13T07:20:16.430Z,1016.78
2018-12-13T07:21:16.429Z,1016.79
2018-12-13T07:23:16.424Z,1016.77
2018-12-13T07:25:16.436Z,1016.83
2018-12-13T07:26:16.428Z,1016.83
2018-12-13T07:27:16.460Z,1016.81
2018-12-13T07:28:16.427Z,1016.86
2018-12-13T07:29:16.431Z,1016.86
2018-12-13T07:30:16.423Z,1016.84
2018-12-13T07:31:16.427Z,1016.91
2018-12-13T07:32:16.439Z,1016.89
2018-12-13T07:33:16.435Z,1016.86
2018-12-13T07:34:16.438Z,1016.88
2018-12-13T07:35:16.430Z,1016.87
2018-12-13T07:36:16.425Z,1016.90
2018-12-13T07:37:16.486Z,1016.91
2018-12-13T07:38:16.436Z,1016.85
2018-12-13T07:39:16.431Z,1016.89
2018-12-13T07:40:16.447Z,1016.89
2018-12-13T07:41:16.444Z,1016.94
2018-12-13T07:42:16.423Z,1016.94
2018-12-13T07:43:16.427Z,1016.90
2018-12-13T07:44:16.424Z,1016.85
2018-12-13T07:45:16.428Z,1016.89
2018-12-13T07:46:16.439Z,1016.92
2018-12-13T07:47:16.441Z,1016.86
2018-12-13T07:48:16.442Z,1016.91
2018-12-13T07:49:16.437Z,1016.89
2018-12-13T07:50:16.442Z,1016.90
2018-12-13T07:51:16.437Z,1016.92
2018-12-13T07:52:16.439Z,1016.91
2018-12-13T07:53:16.458Z,1016.97
2018-12-13T07:54:16.439Z,1016.96
2018-12-13T07:55:16.445Z,1016.93
2018-12-13T07:56:16.433Z,1016.93
2018-12-13T07:57:16.440Z,1016.93
2018-12-13T07:58:16.463Z,1016.92
2018-12-13T07:59:16.455Z,1016.97
2018-12-13T08:00:16.454Z,1016.96
2018-12-13T08:01:16.435Z,1017.02
2018-12-13T08:02:16.441Z,1016.99
2018-12-13T08:03:16.448Z,1017.01
2018-12-13T08:04:16.453Z,1016.99
2018-12-13T08:05:16.445Z,1017.01
2018-12-13T08:06:16.490Z,1017.04
2018-12-13T08:07:16.458Z,1016.99
2018-12-13T08:08:20.798Z,1017.04
2018-12-13T08:09:16.464Z,1017.02
2018-12-13T08:10:16.457Z,1016.97
2018-12-13T08:11:16.446Z,1017.01
2018-12-13T08:13:16.470Z,1016.99
2018-12-13T08:14:16.449Z,1016.99
2018-12-13T08:15:16.451Z,1017.00
2018-12-13T08:16:16.452Z,1017.00
2018-12-13T08:17:16.469Z,1016.95
2018-12-13T08:18:16.467Z,1016.95
2018-12-13T08:19:16.470Z,1017.00
2018-12-13T08:20:16.465Z,1017.01
2018-12-13T08:21:16.454Z,1017.00
2018-12-13T08:22:16.455Z,1016.98
2018-12-13T08:23:16.468Z,1016.97
2018-12-13T08:24:16.473Z,1016.97
2018-12-13T08:25:16.472Z,1016.95
2018-12-13T08:26:16.468Z,1016.94
2018-12-13T08:27:16.465Z,1016.92
2018-12-13T08:28:16.474Z,1016.92
2018-12-13T08:29:16.490Z,1016.95
2018-12-13T08:31:16.472Z,1016.96
2018-12-13T08:33:16.473Z,1016.97
2018-12-13T08:34:16.478Z,1016.96
2018-12-13T08:36:16.506Z,1016.94
2018-12-13T08:37:16.475Z,1016.96
2018-12-13T08:38:16.549Z,1016.95
2018-12-13T08:39:16.487Z,1016.94
2018-12-13T08:40:16.488Z,1016.98
2018-12-13T08:41:16.508Z,1017.00
2018-12-13T08:42:16.495Z,1017.03
2018-12-13T08:43:16.492Z,1017.00
2018-12-13T08:44:16.500Z,1017.03
2018-12-13T08:45:16.504Z,1017.04
2018-12-13T08:46:16.505Z,1017.01
2018-12-13T08:47:16.506Z,1017.00
2018-12-13T08:48:16.508Z,1016.99
2018-12-13T08:50:16.507Z,1016.96
2018-12-13T08:51:16.505Z,1016.98
2018-12-13T08:52:16.522Z,1017.02
2018-12-13T08:54:16.522Z,1016.95
2018-12-13T08:57:16.528Z,1016.97
2018-12-13T08:58:16.522Z,1016.95
2018-12-13T08:59:16.524Z,1017.00
2018-12-13T09:00:16.529Z,1016.97
2018-12-13T09:01:16.532Z,1017.00
2018-12-13T09:02:16.528Z,1016.98
2018-12-13T09:03:16.530Z,1016.97
2018-12-13T09:04:16.534Z,1017.00
2018-12-13T09:05:16.541Z,1017.02
2018-12-13T09:06:16.548Z,1017.01
2018-12-13T09:07:16.547Z,1017.06
2018-12-13T09:08:16.543Z,1017.06
2018-12-13T09:09:16.572Z,1017.06
2018-12-13T09:10:16.545Z,1017.13
2018-12-13T09:11:16.548Z,1017.13
2018-12-13T09:12:16.551Z,1017.10
2018-12-13T09:13:16.560Z,1017.09
2018-12-13T09:14:16.570Z,1017.04
2018-12-13T09:15:16.562Z,1017.06
2018-12-13T09:17:16.575Z,1017.15
2018-12-13T09:19:16.585Z,1017.17
2018-12-13T09:20:16.569Z,1017.20
2018-12-13T09:21:16.571Z,1017.19
2018-12-13T09:22:16.567Z,1017.23
2018-12-13T09:23:16.573Z,1017.14
2018-12-13T09:24:16.587Z,1017.18
2018-12-13T09:25:16.584Z,1017.18
2018-12-13T09:26:16.592Z,1017.18
2018-12-13T09:27:16.782Z,1017.22
2018-12-13T09:28:16.611Z,1017.24
2018-12-13T09:29:16.606Z,1017.23
2018-12-13T09:30:16.593Z,1017.24
2018-12-13T09:31:16.602Z,1017.25
2018-12-13T09:33:16.608Z,1017.30
2018-12-13T09:34:16.609Z,1017.33
2018-12-13T09:35:16.615Z,1017.32
2018-12-13T09:36:16.689Z,1017.31
2018-12-13T09:37:16.629Z,1017.31
2018-12-13T09:38:16.634Z,1017.29
2018-12-13T09:39:16.639Z,1017.34
2018-12-13T09:40:16.642Z,1017.32
2018-12-13T09:41:16.631Z,1017.26
2018-12-13T09:42:16.659Z,1017.29
2018-12-13T09:43:16.653Z,1017.31
2018-12-13T09:44:16.645Z,1017.33
2018-12-13T09:45:16.651Z,1017.28
2018-12-13T09:46:16.657Z,1017.31
2018-12-13T09:47:16.665Z,1017.33
2018-12-13T09:48:16.651Z,1017.35
2018-12-13T09:49:16.659Z,1017.33
2018-12-13T09:50:16.725Z,1017.38
2018-12-13T09:51:16.679Z,1017.36
2018-12-13T09:52:16.676Z,1017.39
2018-12-13T09:53:16.671Z,1017.39
2018-12-13T09:54:16.680Z,1017.43
2018-12-13T09:55:16.680Z,1017.47
2018-12-13T09:56:16.691Z,1017.46
2018-12-13T09:57:16.692Z,1017.48
2018-12-13T09:58:16.707Z,1017.44
2018-12-13T09:59:16.704Z,1017.48
2018-12-13T10:01:16.708Z,1017.44
2018-12-13T10:02:16.708Z,1017.39
2018-12-13T10:03:16.719Z,1017.45
2018-12-13T10:04:16.715Z,1017.43
2018-12-13T10:05:16.719Z,1017.38
2018-12-13T10:06:16.736Z,1017.35
2018-12-13T10:07:16.751Z,1017.32
2018-12-13T10:08:16.745Z,1017.31
2018-12-13T10:09:16.752Z,1017.30
2018-12-13T10:10:16.762Z,1017.20
2018-12-13T10:11:16.769Z,1017.31
2018-12-13T10:13:16.769Z,1017.35
2018-12-13T10:15:16.786Z,1017.45
2018-12-13T10:17:16.794Z,1017.39
2018-12-13T10:18:16.790Z,1017.32
2018-12-13T10:19:16.798Z,1017.30
2018-12-13T10:20:16.838Z,1017.31
2018-12-13T10:21:16.810Z,1017.28
2018-12-13T10:22:16.814Z,1017.18
2018-12-13T10:23:16.811Z,1017.14
2018-12-13T10:24:16.821Z,1017.17
2018-12-13T10:25:16.828Z,1017.20
2018-12-13T10:26:16.828Z,1017.28
2018-12-13T10:27:16.841Z,1017.37
2018-12-13T10:28:16.852Z,1017.22
2018-12-13T10:29:16.847Z,1017.23
2018-12-13T10:30:16.859Z,1017.35
2018-12-13T10:31:16.877Z,1017.37
2018-12-13T10:32:16.868Z,1017.40
2018-12-13T10:33:16.864Z,1017.34
2018-12-13T10:34:16.863Z,1017.27
2018-12-13T10:36:16.878Z,1017.28
2018-12-13T10:37:16.878Z,1017.29
2018-12-13T10:38:16.887Z,1017.24
2018-12-13T10:39:16.896Z,1017.21
2018-12-13T10:40:16.899Z,1017.28
2018-12-13T10:41:16.904Z,1017.26
2018-12-13T10:42:16.921Z,1017.29
2018-12-13T10:44:16.924Z,1017.18
2018-12-13T10:45:16.934Z,1017.21
2018-12-13T10:46:16.937Z,1017.11
2018-12-13T10:47:16.947Z,1017.05
2018-12-13T10:49:16.943Z,1016.98
2018-12-13T10:50:16.957Z,1017.01
2018-12-13T10:51:16.957Z,1017.06
2018-12-13T10:52:16.958Z,1017.05
2018-12-13T10:53:16.968Z,1016.97
2018-12-13T10:54:16.981Z,1016.92
2018-12-13T10:55:16.972Z,1016.93
2018-12-13T10:56:16.994Z,1016.95
2018-12-13T10:57:16.997Z,1016.87
2018-12-13T10:58:16.994Z,1016.92
2018-12-13T10:59:16.997Z,1017.04
2018-12-13T11:00:17.013Z,1016.92
2018-12-13T11:01:17.017Z,1016.85
2018-12-13T11:03:17.025Z,1016.90
2018-12-13T11:04:17.031Z,1017.02
2018-12-13T11:05:17.031Z,1016.87
2018-12-13T11:07:17.041Z,1016.92
2018-12-13T11:09:17.055Z,1016.81
2018-12-13T11:10:17.058Z,1016.70
2018-12-13T11:11:17.066Z,1016.70
2018-12-13T11:12:17.072Z,1016.75
2018-12-13T11:13:17.073Z,1016.69
2018-12-13T11:14:17.074Z,1016.55
2018-12-13T11:15:17.079Z,1016.55
2018-12-13T11:16:17.087Z,1016.60
2018-12-13T11:17:17.087Z,1016.53
2018-12-13T11:19:17.108Z,1016.60
2018-12-13T11:20:17.126Z,1016.55
2018-12-13T11:21:17.372Z,1016.49
2018-12-13T11:22:17.110Z,1016.51
2018-12-13T11:23:17.107Z,1016.52
2018-12-13T11:24:17.141Z,1016.62
2018-12-13T11:25:17.121Z,1016.61
2018-12-13T11:26:17.130Z,1016.59
2018-12-13T11:27:17.138Z,1016.68
2018-12-13T11:28:17.137Z,1016.65
2018-12-13T11:29:17.133Z,1016.62
2018-12-13T11:30:17.140Z,1016.68
2018-12-13T11:31:17.144Z,1016.62
2018-12-13T11:32:17.182Z,1016.60
2018-12-13T11:33:17.165Z,1016.57
2018-12-13T11:34:17.160Z,1016.50
2018-12-13T11:35:17.158Z,1016.58
2018-12-13T11:36:17.168Z,1016.56
2018-12-13T11:37:17.165Z,1016.59
2018-12-13T11:38:17.179Z,1016.54
2018-12-13T11:39:17.177Z,1016.45
2018-12-13T11:40:17.186Z,1016.59
2018-12-13T11:41:17.194Z,1016.74
2018-12-13T11:42:17.207Z,1016.78
2018-12-13T11:43:17.201Z,1016.56
2018-12-13T11:44:17.203Z,1016.49
2018-12-13T11:45:17.209Z,1016.63
2018-12-13T11:46:17.212Z,1016.64
2018-12-13T11:47:17.217Z,1016.71
2018-12-13T11:48:17.231Z,1016.70
2018-12-13T11:49:17.227Z,1016.62
2018-12-13T11:51:17.271Z,1016.72
2018-12-13T11:52:17.239Z,1016.61
2018-12-13T11:53:17.252Z,1016.59
2018-12-13T11:54:17.266Z,1016.55
2018-12-13T11:55:17.254Z,1016.45
2018-12-13T11:56:17.254Z,1016.35
2018-12-13T11:57:17.263Z,1016.36
2018-12-13T11:58:17.273Z,1016.33
2018-12-13T11:59:17.281Z,1016.27
2018-12-13T12:00:17.281Z,1016.21
2018-12-13T12:01:17.285Z,1016.27
2018-12-13T12:02:23.730Z,1016.35
2018-12-13T12:03:17.294Z,1016.33
2018-12-13T12:04:17.315Z,1016.28
2018-12-13T12:05:17.311Z,1016.23
2018-12-13T12:06:17.323Z,1016.16
2018-12-13T12:07:17.323Z,1016.18
2018-12-13T12:08:17.328Z,1016.17
2018-12-13T12:09:17.355Z,1016.16
2018-12-13T12:10:17.342Z,1016.12
2018-12-13T12:11:17.354Z,1016.01
2018-12-13T12:12:17.372Z,1016.04
2018-12-13T12:13:17.363Z,1016.05
2018-12-13T12:14:17.365Z,1016.03
2018-12-13T12:15:17.375Z,1015.95
2018-12-13T12:16:17.374Z,1015.97
2018-12-13T12:18:17.386Z,1016.01
2018-12-13T12:19:17.394Z,1016.00
2018-12-13T12:20:17.404Z,1015.96
2018-12-13T12:21:17.405Z,1015.90
2018-12-13T12:22:17.418Z,1015.83
2018-12-13T12:24:17.440Z,1015.81
2018-12-13T12:25:17.439Z,1015.82
2018-12-13T12:26:17.466Z,1015.80
2018-12-13T12:27:17.451Z,1015.77
2018-12-13T12:28:17.464Z,1015.82
2018-12-13T12:30:17.466Z,1015.82
2018-12-13T12:31:17.457Z,1015.94
2018-12-13T12:32:17.479Z,1015.82
2018-12-13T12:33:17.476Z,1015.76
2018-12-13T12:34:17.480Z,1015.85
2018-12-13T12:35:17.489Z,1015.74
2018-12-13T12:36:17.486Z,1015.71
2018-12-13T12:38:17.515Z,1015.69
2018-12-13T12:39:18.684Z,1015.75
2018-12-13T12:40:17.524Z,1015.71
2018-12-13T12:41:17.566Z,1015.70
2018-12-13T12:42:17.530Z,1015.75
2018-12-13T12:43:17.553Z,1015.70
2018-12-13T12:45:17.547Z,1015.78
2018-12-13T12:46:17.550Z,1015.74
2018-12-13T12:47:17.559Z,1015.78
2018-12-13T12:48:17.563Z,1015.80
2018-12-13T12:49:17.572Z,1015.76
2018-12-13T12:50:17.578Z,1015.74
2018-12-13T12:51:17.581Z,1015.70